createdAt,value
2023-04-28T00:00:10.597Z,103
2023-04-28T00:01:10.901Z,103
2023-04-28T00:02:11.363Z,103
2023-04-28T00:03:10.870Z,103
2023-04-28T00:04:12.039Z,103
2023-04-28T00:06:10.804Z,103
2023-04-28T00:07:10.724Z,101
2023-04-28T00:08:11.011Z,101
2023-04-28T00:09:10.384Z,101
2023-04-28T00:10:10.879Z,101
2023-04-28T00:11:10.642Z,101
2023-04-28T00:12:10.748Z,101
2023-04-28T00:13:11.011Z,101
2023-04-28T00:14:10.296Z,101
2023-04-28T00:15:10.553Z,101
2023-04-28T00:16:10.961Z,101
2023-04-28T00:17:11.034Z,101
2023-04-28T00:18:11.402Z,101
2023-04-28T00:19:10.481Z,101
2023-04-28T00:20:10.689Z,101
2023-04-28T00:23:10.317Z,101
2023-04-28T00:24:10.672Z,101
2023-04-28T00:25:10.889Z,101
2023-04-28T00:26:10.618Z,101
2023-04-28T00:27:10.267Z,101
2023-04-28T00:28:11.705Z,101
2023-04-28T00:29:10.980Z,101
2023-04-28T00:30:10.892Z,101
2023-04-28T00:33:11.285Z,101
2023-04-28T00:35:10.482Z,101
2023-04-28T00:36:10.710Z,101
2023-04-28T00:37:10.701Z,101
2023-04-28T00:38:11.172Z,101
2023-04-28T00:39:10.763Z,101
2023-04-28T00:40:10.919Z,101
2023-04-28T00:41:10.203Z,101
2023-04-28T00:42:10.686Z,101
2023-04-28T00:43:10.856Z,101
2023-04-28T00:44:10.159Z,101
2023-04-28T00:45:11.081Z,101
2023-04-28T00:46:11.210Z,101
2023-04-28T00:47:11.106Z,101
2023-04-28T00:52:10.751Z,101
2023-04-28T00:53:11.077Z,101
2023-04-28T00:54:11.193Z,101
2023-04-28T00:55:10.283Z,101
2023-04-28T00:56:10.210Z,101
2023-04-28T00:57:10.486Z,101
2023-04-28T00:58:10.996Z,101
2023-04-28T00:59:10.894Z,101
2023-04-28T01:00:11.386Z,101
2023-04-28T01:01:10.807Z,101
2023-04-28T01:02:11.347Z,101
2023-04-28T01:05:11.009Z,101
2023-04-28T01:06:11.277Z,101
2023-04-28T01:07:10.370Z,103
2023-04-28T01:08:10.635Z,103
2023-04-28T01:09:10.913Z,103
2023-04-28T01:10:11.225Z,103
2023-04-28T01:11:11.335Z,103
2023-04-28T01:12:10.189Z,103
2023-04-28T01:13:10.461Z,103
2023-04-28T01:14:10.316Z,103
2023-04-28T01:15:10.412Z,103
2023-04-28T01:16:10.621Z,103
2023-04-28T01:17:11.128Z,103
2023-04-28T01:21:10.401Z,103
2023-04-28T01:22:10.607Z,103
2023-04-28T01:23:11.014Z,103
2023-04-28T01:24:11.067Z,103
2023-04-28T01:26:10.591Z,103
2023-04-28T01:27:10.661Z,103
2023-04-28T01:28:10.951Z,103
2023-04-28T01:29:11.041Z,103
2023-04-28T01:30:10.520Z,103
2023-04-28T01:31:10.817Z,103
2023-04-28T01:32:11.011Z,103
2023-04-28T01:33:10.958Z,103
2023-04-28T01:34:10.424Z,103
2023-04-28T01:37:10.863Z,103
2023-04-28T01:38:09.792Z,103
2023-04-28T01:39:10.902Z,103
2023-04-28T01:40:10.818Z,103
2023-04-28T01:44:10.441Z,103
2023-04-28T01:45:10.640Z,103
2023-04-28T01:46:11.246Z,103
2023-04-28T01:47:11.190Z,103
2023-04-28T01:48:10.783Z,103
2023-04-28T01:49:10.599Z,103
2023-04-28T01:50:10.945Z,103
2023-04-28T01:53:10.177Z,103
2023-04-28T01:54:10.720Z,103
2023-04-28T01:55:11.154Z,103
2023-04-28T01:56:11.199Z,103
2023-04-28T01:58:10.276Z,103
2023-04-28T01:59:10.591Z,103
2023-04-28T02:00:10.984Z,103
2023-04-28T02:05:10.540Z,103
2023-04-28T02:06:11.098Z,103
2023-04-28T02:07:10.705Z,101
2023-04-28T02:08:10.707Z,101
2023-04-28T02:09:10.879Z,101
2023-04-28T02:10:11.441Z,101
2023-04-28T02:11:10.425Z,101
2023-04-28T02:12:10.937Z,101
2023-04-28T02:13:10.854Z,101
2023-04-28T02:14:10.464Z,101
2023-04-28T02:15:10.501Z,101
2023-04-28T02:16:11.007Z,101
2023-04-28T02:19:10.635Z,101
2023-04-28T02:20:11.059Z,101
2023-04-28T02:21:10.657Z,101
2023-04-28T02:22:11.183Z,101
2023-04-28T02:27:10.514Z,101
2023-04-28T02:28:11.114Z,101
2023-04-28T02:29:10.287Z,101
2023-04-28T02:30:10.852Z,101
2023-04-28T02:31:11.216Z,101
2023-04-28T02:32:11.268Z,101
2023-04-28T02:33:10.513Z,101
2023-04-28T02:34:10.579Z,101
2023-04-28T02:35:11.038Z,101
2023-04-28T02:38:10.651Z,101
2023-04-28T02:39:11.202Z,101
2023-04-28T02:40:10.596Z,101
2023-04-28T02:41:10.812Z,101
2023-04-28T02:42:11.315Z,101
2023-04-28T02:43:10.579Z,101
2023-04-28T02:44:10.918Z,101
2023-04-28T02:45:10.595Z,101
2023-04-28T02:46:10.206Z,101
2023-04-28T02:47:11.059Z,101
2023-04-28T02:48:10.447Z,101
2023-04-28T02:49:10.706Z,101
2023-04-28T02:50:11.199Z,101
2023-04-28T02:51:11.227Z,101
2023-04-28T02:56:10.684Z,101
2023-04-28T02:57:10.720Z,101
2023-04-28T02:58:11.057Z,101
2023-04-28T02:59:10.371Z,101
2023-04-28T03:00:10.800Z,101
2023-04-28T03:01:10.700Z,101
2023-04-28T03:02:10.633Z,101
2023-04-28T03:03:11.879Z,101
2023-04-28T03:04:12.088Z,101
2023-04-28T03:05:10.686Z,101
2023-04-28T03:06:10.746Z,101
2023-04-28T03:07:11.104Z,102
2023-04-28T03:08:11.242Z,102
2023-04-28T03:09:10.201Z,102
2023-04-28T03:10:10.852Z,102
2023-04-28T03:12:10.241Z,102
2023-04-28T03:13:11.038Z,102
2023-04-28T03:14:11.237Z,102
2023-04-28T03:15:10.336Z,102
2023-04-28T03:16:11.097Z,102
2023-04-28T03:17:10.806Z,102
2023-04-28T03:18:11.059Z,102
2023-04-28T03:19:11.357Z,102
2023-04-28T03:20:10.425Z,102
2023-04-28T03:21:10.781Z,102
2023-04-28T03:22:10.939Z,102
2023-04-28T03:23:10.950Z,102
2023-04-28T03:24:13.465Z,102
2023-04-28T03:25:10.790Z,102
2023-04-28T03:26:10.984Z,102
2023-04-28T03:27:10.958Z,102
2023-04-28T03:32:10.675Z,102
2023-04-28T03:33:10.688Z,102
2023-04-28T03:34:10.309Z,102
2023-04-28T03:35:10.821Z,102
2023-04-28T03:36:10.870Z,102
2023-04-28T03:37:11.180Z,102
2023-04-28T03:40:10.440Z,102
2023-04-28T03:41:10.203Z,102
2023-04-28T03:42:10.928Z,102
2023-04-28T03:43:13.204Z,102
2023-04-28T03:44:11.102Z,102
2023-04-28T03:45:11.300Z,102
2023-04-28T03:46:10.613Z,102
2023-04-28T03:47:10.680Z,102
2023-04-28T03:48:11.079Z,102
2023-04-28T03:49:11.191Z,102
2023-04-28T03:50:10.100Z,102
2023-04-28T03:51:10.575Z,102
2023-04-28T03:52:10.954Z,102
2023-04-28T03:53:10.961Z,102
2023-04-28T03:54:11.198Z,102
2023-04-28T03:55:10.415Z,102
2023-04-28T03:56:10.557Z,102
2023-04-28T03:57:10.943Z,102
2023-04-28T03:58:11.085Z,102
2023-04-28T03:59:10.373Z,102
2023-04-28T04:00:10.743Z,102
2023-04-28T04:01:10.813Z,102
2023-04-28T04:02:11.071Z,102
2023-04-28T04:03:10.921Z,102
2023-04-28T04:04:11.766Z,102
2023-04-28T04:05:10.439Z,102
2023-04-28T04:06:10.752Z,102
2023-04-28T04:07:10.920Z,104
2023-04-28T04:10:13.204Z,104
2023-04-28T04:11:10.666Z,104
2023-04-28T04:12:10.986Z,104
2023-04-28T04:13:11.263Z,104
2023-04-28T04:14:10.360Z,104
2023-04-28T04:15:10.612Z,104
2023-04-28T04:16:11.105Z,104
2023-04-28T04:17:11.097Z,104
2023-04-28T04:18:11.230Z,104
2023-04-28T04:19:10.618Z,104
2023-04-28T04:20:11.271Z,104
2023-04-28T04:21:10.147Z,104
2023-04-28T04:22:10.435Z,104
2023-04-28T04:23:10.651Z,104
2023-04-28T04:24:10.952Z,104
2023-04-28T04:25:10.172Z,104
2023-04-28T04:26:10.423Z,104
2023-04-28T04:27:10.455Z,104
2023-04-28T04:28:10.776Z,104
2023-04-28T04:29:11.143Z,104
2023-04-28T04:30:21.411Z,104
2023-04-28T04:32:10.810Z,104
2023-04-28T04:33:10.599Z,104
2023-04-28T04:34:10.342Z,104
2023-04-28T04:35:10.989Z,104
2023-04-28T04:36:11.180Z,104
2023-04-28T04:37:10.251Z,104
2023-04-28T04:38:10.705Z,104
2023-04-28T04:39:10.741Z,104
2023-04-28T04:40:11.228Z,104
2023-04-28T04:42:32.250Z,104
2023-04-28T04:44:11.801Z,104
2023-04-28T04:45:10.553Z,104
2023-04-28T04:46:10.885Z,104
2023-04-28T04:47:10.979Z,104
2023-04-28T04:48:10.412Z,104
2023-04-28T04:49:10.657Z,104
2023-04-28T04:50:11.044Z,104
2023-04-28T04:51:10.790Z,104
2023-04-28T04:52:10.024Z,104
2023-04-28T04:53:16.523Z,104
2023-04-28T04:54:10.256Z,104
2023-04-28T04:55:10.564Z,104
2023-04-28T04:56:11.296Z,104
2023-04-28T04:57:10.381Z,104
2023-04-28T04:58:10.644Z,104
2023-04-28T04:59:10.807Z,104
2023-04-28T05:00:10.989Z,104
2023-04-28T05:01:10.368Z,104
2023-04-28T05:02:10.722Z,104
2023-04-28T05:03:11.362Z,104
2023-04-28T05:04:11.782Z,104
2023-04-28T05:05:29.885Z,104
2023-04-28T05:07:09.468Z,106
2023-04-28T05:08:10.796Z,106
2023-04-28T05:09:10.820Z,106
2023-04-28T05:10:11.147Z,106
2023-04-28T05:11:11.005Z,106
2023-04-28T05:12:10.295Z,106
2023-04-28T05:13:09.497Z,106
2023-04-28T05:14:10.699Z,106
2023-04-28T05:15:10.827Z,106
2023-04-28T05:16:10.267Z,106
2023-04-28T05:17:10.657Z,106
2023-04-28T05:18:11.198Z,106
2023-04-28T05:22:10.491Z,106
2023-04-28T05:23:10.722Z,106
2023-04-28T05:24:10.856Z,106
2023-04-28T05:25:11.169Z,106
2023-04-28T05:26:10.863Z,106
2023-04-28T05:27:10.768Z,106
2023-04-28T05:28:10.158Z,106
2023-04-28T05:29:10.599Z,106
2023-04-28T05:30:10.970Z,106
2023-04-28T05:31:11.091Z,106
2023-04-28T05:36:10.460Z,106
2023-04-28T05:37:10.985Z,106
2023-04-28T05:38:11.283Z,106
2023-04-28T05:39:10.455Z,106
2023-04-28T05:40:10.660Z,106
2023-04-28T05:43:10.339Z,106
2023-04-28T05:44:10.489Z,106
2023-04-28T05:45:10.750Z,106
2023-04-28T05:46:32.756Z,106
2023-04-28T05:47:10.469Z,106
2023-04-28T05:48:11.092Z,106
2023-04-28T05:49:11.290Z,106
2023-04-28T05:50:10.400Z,106
2023-04-28T05:51:10.337Z,106
2023-04-28T05:52:10.491Z,106
2023-04-28T05:53:10.861Z,106
2023-04-28T05:54:11.039Z,106
2023-04-28T05:57:10.723Z,106
2023-04-28T05:58:11.103Z,106
2023-04-28T06:01:10.847Z,106
2023-04-28T06:02:11.362Z,106
2023-04-28T06:06:16.590Z,106
2023-04-28T06:08:10.524Z,105
2023-04-28T06:09:11.030Z,105
2023-04-28T06:10:11.252Z,105
2023-04-28T06:13:10.980Z,105
2023-04-28T06:14:10.419Z,105
2023-04-28T06:15:11.141Z,105
2023-04-28T06:16:11.456Z,105
2023-04-28T06:17:10.513Z,105
2023-04-28T06:18:11.089Z,105
2023-04-28T06:19:10.873Z,105
2023-04-28T06:20:11.160Z,105
2023-04-28T06:23:10.778Z,105
2023-04-28T06:24:11.053Z,105
2023-04-28T06:25:10.353Z,105
2023-04-28T06:26:10.650Z,105
2023-04-28T06:27:10.943Z,105
2023-04-28T06:28:11.207Z,105
2023-04-28T06:29:10.280Z,105
2023-04-28T06:30:10.644Z,105
2023-04-28T06:31:11.083Z,105
2023-04-28T06:32:11.136Z,105
2023-04-28T06:37:10.335Z,105
2023-04-28T06:38:10.688Z,105
2023-04-28T06:39:11.146Z,105
2023-04-28T06:40:10.367Z,105
2023-04-28T06:41:10.751Z,105
2023-04-28T06:42:11.100Z,105
2023-04-28T06:43:11.276Z,105
2023-04-28T06:44:09.470Z,105
2023-04-28T06:45:10.710Z,105
2023-04-28T06:46:11.240Z,105
2023-04-28T06:47:10.300Z,105
2023-04-28T06:48:10.722Z,105
2023-04-28T06:49:10.875Z,105
2023-04-28T06:50:11.609Z,105
2023-04-28T06:51:10.541Z,105
2023-04-28T06:52:10.787Z,105
2023-04-28T06:53:11.148Z,105
2023-04-28T06:54:10.286Z,105
2023-04-28T06:55:10.637Z,105
2023-04-28T06:56:13.834Z,105
2023-04-28T06:57:11.181Z,105
2023-04-28T06:59:10.856Z,105
2023-04-28T07:00:11.345Z,105
2023-04-28T07:01:11.482Z,105
2023-04-28T07:02:10.597Z,105
2023-04-28T07:03:11.890Z,105
2023-04-28T07:04:12.098Z,105
2023-04-28T07:05:11.470Z,105
2023-04-28T07:06:10.966Z,105
2023-04-28T07:07:10.236Z,104
2023-04-28T07:08:11.074Z,104
2023-04-28T07:12:11.110Z,104
2023-04-28T07:13:10.384Z,104
2023-04-28T07:14:10.479Z,104
2023-04-28T07:15:12.889Z,104
2023-04-28T07:16:10.820Z,104
2023-04-28T07:17:11.133Z,104
2023-04-28T07:18:10.474Z,104
2023-04-28T07:19:10.989Z,104
2023-04-28T07:20:11.629Z,104
2023-04-28T07:21:12.023Z,104
2023-04-28T07:22:10.835Z,104
2023-04-28T07:23:11.210Z,104
2023-04-28T07:24:11.264Z,104
2023-04-28T07:25:10.441Z,104
2023-04-28T07:26:10.845Z,104
2023-04-28T07:27:10.878Z,104
2023-04-28T07:28:11.277Z,104
2023-04-28T07:29:10.353Z,104
2023-04-28T07:30:34.341Z,104
2023-04-28T07:32:14.101Z,104
2023-04-28T07:33:10.879Z,104
2023-04-28T07:34:11.103Z,104
2023-04-28T07:38:11.235Z,104
2023-04-28T07:39:10.485Z,104
2023-04-28T07:40:10.980Z,104
2023-04-28T07:41:15.552Z,104
2023-04-28T07:42:10.560Z,104
2023-04-28T07:43:10.555Z,104
2023-04-28T07:44:10.722Z,104
2023-04-28T07:45:11.233Z,104
2023-04-28T07:46:10.761Z,104
2023-04-28T07:50:10.566Z,104
2023-04-28T07:51:10.529Z,104
2023-04-28T07:52:10.910Z,104
2023-04-28T07:53:10.864Z,104
2023-04-28T07:54:10.254Z,104
2023-04-28T07:55:10.348Z,104
2023-04-28T07:56:10.526Z,104
2023-04-28T07:57:10.983Z,104
2023-04-28T08:02:10.642Z,104
2023-04-28T08:03:11.049Z,104
2023-04-28T08:04:12.201Z,104
2023-04-28T08:05:12.932Z,104
2023-04-28T08:06:11.066Z,104
2023-04-28T08:08:10.215Z,103
2023-04-28T08:09:10.689Z,103
2023-04-28T08:10:10.783Z,103
2023-04-28T08:13:10.947Z,103
2023-04-28T08:14:11.230Z,103
2023-04-28T08:15:10.455Z,103
2023-04-28T08:16:10.735Z,103
2023-04-28T08:17:10.979Z,103
2023-04-28T08:18:09.900Z,103
2023-04-28T08:19:11.266Z,103
2023-04-28T08:20:10.269Z,103
2023-04-28T08:21:09.606Z,103
2023-04-28T08:22:10.862Z,103
2023-04-28T08:23:11.035Z,103
2023-04-28T08:27:10.315Z,103
2023-04-28T08:28:10.281Z,103
2023-04-28T08:29:10.867Z,103
2023-04-28T08:30:11.161Z,103
2023-04-28T08:31:10.920Z,103
2023-04-28T08:33:11.832Z,103
2023-04-28T08:36:11.106Z,103
2023-04-28T08:37:10.084Z,103
2023-04-28T08:38:10.408Z,103
2023-04-28T08:39:12.385Z,103
2023-04-28T08:40:10.987Z,103
2023-04-28T08:41:11.358Z,103
2023-04-28T08:42:11.176Z,103
2023-04-28T08:43:10.303Z,103
2023-04-28T08:44:10.678Z,103
2023-04-28T08:45:11.092Z,103
2023-04-28T08:46:11.476Z,103
2023-04-28T08:47:10.519Z,103
2023-04-28T08:48:10.726Z,103
2023-04-28T08:49:10.514Z,103
2023-04-28T08:50:11.113Z,103
2023-04-28T08:54:30.469Z,103
2023-04-28T08:56:11.189Z,103
2023-04-28T08:57:11.407Z,103
2023-04-28T08:58:10.330Z,103
2023-04-28T08:59:10.433Z,103
2023-04-28T09:00:10.885Z,103
2023-04-28T09:01:11.007Z,103
2023-04-28T09:04:15.641Z,103
2023-04-28T09:05:11.848Z,103
2023-04-28T09:06:10.517Z,103
2023-04-28T09:07:10.901Z,105
2023-04-28T09:08:10.913Z,105
2023-04-28T09:09:10.812Z,105
2023-04-28T09:14:10.476Z,105
2023-04-28T09:15:10.847Z,105
2023-04-28T09:16:11.416Z,105
2023-04-28T09:17:10.501Z,105
2023-04-28T09:18:11.221Z,105
2023-04-28T09:19:10.746Z,105
2023-04-28T09:20:11.286Z,105
2023-04-28T09:22:32.940Z,105
2023-04-28T09:24:10.879Z,105
2023-04-28T09:25:10.971Z,105
2023-04-28T09:26:10.426Z,105
2023-04-28T09:27:10.568Z,105
2023-04-28T09:28:10.348Z,105
2023-04-28T09:29:10.746Z,105
2023-04-28T09:30:10.898Z,105
2023-04-28T09:31:10.954Z,105
2023-04-28T09:32:10.474Z,105
2023-04-28T09:33:13.632Z,105
2023-04-28T09:34:13.978Z,105
2023-04-28T09:36:10.365Z,105
2023-04-28T09:37:10.628Z,105
2023-04-28T09:38:10.745Z,105
2023-04-28T09:39:10.960Z,105
2023-04-28T09:40:10.483Z,105
2023-04-28T09:41:10.892Z,105
2023-04-28T09:42:10.798Z,105
2023-04-28T09:43:28.655Z,105
2023-04-28T09:45:10.514Z,105
2023-04-28T09:46:11.459Z,105
2023-04-28T09:47:10.471Z,105
2023-04-28T09:48:11.038Z,105
2023-04-28T09:49:11.041Z,105
2023-04-28T09:50:10.582Z,105
2023-04-28T09:51:13.108Z,105
2023-04-28T09:53:11.027Z,105
2023-04-28T09:54:10.488Z,105
2023-04-28T09:55:10.818Z,105
2023-04-28T09:56:10.857Z,105
2023-04-28T09:57:12.022Z,105
2023-04-28T09:58:10.321Z,105
2023-04-28T09:59:10.543Z,105
2023-04-28T10:00:11.477Z,105
2023-04-28T10:01:10.341Z,105
2023-04-28T10:02:49.740Z,105
2023-04-28T10:04:12.298Z,105
2023-04-28T10:05:12.011Z,105
2023-04-28T10:07:10.456Z,110
2023-04-28T10:08:10.854Z,110
2023-04-28T10:09:11.440Z,110
2023-04-28T10:10:11.337Z,110
2023-04-28T10:11:11.238Z,110
2023-04-28T10:12:10.288Z,110
2023-04-28T10:13:10.797Z,110
2023-04-28T10:14:11.149Z,110
2023-04-28T10:16:10.600Z,110
2023-04-28T10:17:10.689Z,110
2023-04-28T10:18:11.059Z,110
2023-04-28T10:19:11.047Z,110
2023-04-28T10:20:10.645Z,110
2023-04-28T10:21:10.674Z,110
2023-04-28T10:22:10.847Z,110
2023-04-28T10:23:11.024Z,110
2023-04-28T10:24:10.273Z,110
2023-04-28T10:25:10.737Z,110
2023-04-28T10:26:11.156Z,110
2023-04-28T10:27:10.357Z,110
2023-04-28T10:28:10.660Z,110
2023-04-28T10:29:10.968Z,110
2023-04-28T10:30:32.301Z,110
2023-04-28T10:32:11.171Z,110
2023-04-28T10:33:10.755Z,110
2023-04-28T10:36:10.160Z,110
2023-04-28T10:37:10.364Z,110
2023-04-28T10:38:10.641Z,110
2023-04-28T10:39:10.254Z,110
2023-04-28T10:40:12.732Z,110
2023-04-28T10:41:10.835Z,110
2023-04-28T10:42:10.104Z,110
2023-04-28T10:43:10.537Z,110
2023-04-28T10:44:10.854Z,110
2023-04-28T10:45:11.052Z,110
2023-04-28T10:47:10.830Z,110
2023-04-28T10:48:11.097Z,110
2023-04-28T10:49:10.586Z,110
2023-04-28T10:50:10.809Z,110
2023-04-28T10:51:10.833Z,110
2023-04-28T10:52:10.958Z,110
2023-04-28T10:53:10.244Z,110
2023-04-28T10:54:10.273Z,110
2023-04-28T10:55:28.870Z,110
2023-04-28T10:57:10.561Z,110
2023-04-28T10:58:10.928Z,110
2023-04-28T10:59:11.231Z,110
2023-04-28T11:00:09.978Z,110
2023-04-28T11:01:11.329Z,110
2023-04-28T11:02:10.632Z,110
2023-04-28T11:03:11.316Z,110
2023-04-28T11:04:12.056Z,110
2023-04-28T11:05:11.938Z,110
2023-04-28T11:10:10.844Z,104
2023-04-28T11:13:10.207Z,104
2023-04-28T11:14:10.456Z,104
2023-04-28T11:15:10.854Z,104
2023-04-28T11:16:11.732Z,104
2023-04-28T11:17:10.596Z,104
2023-04-28T11:18:11.097Z,104
2023-04-28T11:19:11.102Z,104
2023-04-28T11:20:11.364Z,104
2023-04-28T11:21:11.154Z,104
2023-04-28T11:22:10.206Z,104
2023-04-28T11:23:10.331Z,104
2023-04-28T11:24:10.740Z,104
2023-04-28T11:25:11.148Z,104
2023-04-28T11:26:10.243Z,104
2023-04-28T11:27:10.600Z,104
2023-04-28T11:28:10.748Z,104
2023-04-28T11:29:10.939Z,104
2023-04-28T11:30:10.363Z,104
2023-04-28T11:31:10.503Z,104
2023-04-28T11:32:11.106Z,104
2023-04-28T11:33:11.680Z,104
2023-04-28T11:37:10.311Z,104
2023-04-28T11:38:10.438Z,104
2023-04-28T11:39:10.763Z,104
2023-04-28T11:40:11.019Z,104
2023-04-28T11:41:11.014Z,104
2023-04-28T11:42:10.458Z,104
2023-04-28T11:43:10.978Z,104
2023-04-28T11:44:11.091Z,104
2023-04-28T11:48:10.789Z,104
2023-04-28T11:49:10.651Z,104
2023-04-28T11:50:11.031Z,104
2023-04-28T11:52:11.049Z,104
2023-04-28T11:53:10.496Z,104
2023-04-28T11:54:10.769Z,104
2023-04-28T11:55:11.289Z,104
2023-04-28T11:56:11.150Z,104
2023-04-28T11:57:10.502Z,104
2023-04-28T11:58:10.700Z,104
2023-04-28T11:59:12.576Z,104
2023-04-28T12:01:10.757Z,104
2023-04-28T12:02:11.231Z,104
2023-04-28T12:03:11.517Z,104
2023-04-28T12:06:11.123Z,104
2023-04-28T12:07:11.142Z,107
2023-04-28T12:08:10.345Z,107
2023-04-28T12:09:10.688Z,107
2023-04-28T12:10:11.156Z,107
2023-04-28T12:11:10.606Z,107
2023-04-28T12:12:11.134Z,107
2023-04-28T12:13:11.160Z,107
2023-04-28T12:14:10.378Z,107
2023-04-28T12:15:10.875Z,107
2023-04-28T12:16:10.577Z,107
2023-04-28T12:17:10.837Z,107
2023-04-28T12:18:11.620Z,107
2023-04-28T12:19:10.436Z,107
2023-04-28T12:20:10.772Z,107
2023-04-28T12:24:10.533Z,107
2023-04-28T12:25:10.753Z,107
2023-04-28T12:26:10.838Z,107
2023-04-28T12:27:11.216Z,107
2023-04-28T12:28:10.884Z,107
2023-04-28T12:32:10.690Z,107
2023-04-28T12:33:11.071Z,107
2023-04-28T12:34:10.790Z,107
2023-04-28T12:35:11.222Z,107
2023-04-28T12:36:11.240Z,107
2023-04-28T12:37:10.469Z,107
2023-04-28T12:38:10.530Z,107
2023-04-28T12:39:10.894Z,107
2023-04-28T12:40:10.310Z,107
2023-04-28T12:41:10.913Z,107
2023-04-28T12:42:11.244Z,107
2023-04-28T12:43:10.262Z,107
2023-04-28T12:44:10.384Z,107
2023-04-28T12:45:10.874Z,107
2023-04-28T12:46:11.361Z,107
2023-04-28T12:47:10.271Z,107
2023-04-28T12:48:10.877Z,107
2023-04-28T12:51:10.972Z,107
2023-04-28T12:52:11.049Z,107
2023-04-28T12:53:10.694Z,107
2023-04-28T12:58:10.186Z,107
2023-04-28T12:59:10.843Z,107
2023-04-28T13:00:11.411Z,107
2023-04-28T13:01:10.524Z,107
2023-04-28T13:02:10.954Z,107
2023-04-28T13:03:11.816Z,107
2023-04-28T13:04:12.158Z,107
2023-04-28T13:05:12.445Z,107
2023-04-28T13:06:10.460Z,107
2023-04-28T13:07:10.586Z,113
2023-04-28T13:08:10.788Z,113
2023-04-28T13:09:11.008Z,113
2023-04-28T13:10:10.909Z,113
2023-04-28T13:11:27.508Z,113
2023-04-28T13:13:10.264Z,113
2023-04-28T13:14:10.610Z,113
2023-04-28T13:15:10.852Z,113
2023-04-28T13:16:11.156Z,113
2023-04-28T13:17:11.260Z,113
2023-04-28T13:18:10.620Z,113
2023-04-28T13:19:10.341Z,113
2023-04-28T13:20:10.898Z,113
2023-04-28T13:21:11.479Z,113
2023-04-28T13:22:10.186Z,113
2023-04-28T13:23:10.408Z,113
2023-04-28T13:24:10.683Z,113
2023-04-28T13:25:10.948Z,113
2023-04-28T13:26:10.262Z,113
2023-04-28T13:27:10.926Z,113
2023-04-28T13:28:10.981Z,113
2023-04-28T13:32:11.077Z,113
2023-04-28T13:33:10.609Z,113
2023-04-28T13:34:10.656Z,113
2023-04-28T13:35:11.179Z,113
2023-04-28T13:36:11.181Z,113
2023-04-28T13:37:10.458Z,113
2023-04-28T13:38:10.741Z,113
2023-04-28T13:39:11.413Z,113
2023-04-28T13:40:10.701Z,113
2023-04-28T13:41:10.768Z,113
2023-04-28T13:42:10.888Z,113
2023-04-28T13:43:11.145Z,113
2023-04-28T13:44:10.361Z,113
2023-04-28T13:45:10.689Z,113
2023-04-28T13:46:10.945Z,113
2023-04-28T13:48:10.809Z,113
2023-04-28T13:49:11.148Z,113
2023-04-28T13:50:10.501Z,113
2023-04-28T13:51:10.715Z,113
2023-04-28T13:52:10.949Z,113
2023-04-28T13:53:11.400Z,113
2023-04-28T13:54:10.422Z,113
2023-04-28T13:55:10.697Z,113
2023-04-28T13:56:10.954Z,113
2023-04-28T13:57:10.376Z,113
2023-04-28T13:58:10.418Z,113
2023-04-28T13:59:10.903Z,113
2023-04-28T14:00:11.232Z,113
2023-04-28T14:01:10.418Z,113
2023-04-28T14:02:10.910Z,113
2023-04-28T14:03:11.728Z,113
2023-04-28T14:05:10.601Z,113
2023-04-28T14:06:10.840Z,113
2023-04-28T14:07:10.757Z,111
2023-04-28T14:08:10.415Z,111
2023-04-28T14:09:10.689Z,111
2023-04-28T14:10:11.029Z,111
2023-04-28T14:11:10.408Z,111
2023-04-28T14:12:10.502Z,111
2023-04-28T14:13:10.841Z,111
2023-04-28T14:14:10.862Z,111
2023-04-28T14:15:10.178Z,111
2023-04-28T14:16:10.532Z,111
2023-04-28T14:17:11.343Z,111
2023-04-28T14:19:10.142Z,111
2023-04-28T14:20:10.781Z,111
2023-04-28T14:21:11.282Z,111
2023-04-28T14:22:10.647Z,111
2023-04-28T14:23:10.982Z,111
2023-04-28T14:24:11.178Z,111
2023-04-28T14:25:10.211Z,111
2023-04-28T14:26:10.593Z,111
2023-04-28T14:27:10.495Z,111
2023-04-28T14:28:10.858Z,111
2023-04-28T14:29:11.185Z,111
2023-04-28T14:30:10.814Z,111
2023-04-28T14:31:11.429Z,111
2023-04-28T14:33:10.681Z,111
2023-04-28T14:34:10.695Z,111
2023-04-28T14:35:11.071Z,111
2023-04-28T14:36:10.874Z,111
2023-04-28T14:37:11.311Z,111
2023-04-28T14:42:10.175Z,111
2023-04-28T14:43:10.540Z,111
2023-04-28T14:44:10.843Z,111
2023-04-28T14:45:11.036Z,111
2023-04-28T14:46:10.908Z,111
2023-04-28T14:47:10.927Z,111
2023-04-28T14:48:11.663Z,111
2023-04-28T14:49:10.647Z,111
2023-04-28T14:50:12.533Z,111
2023-04-28T14:51:10.209Z,111
2023-04-28T14:52:10.593Z,111
2023-04-28T14:53:10.923Z,111
2023-04-28T14:54:11.153Z,111
2023-04-28T14:55:10.348Z,111
2023-04-28T14:56:24.466Z,111
2023-04-28T14:58:10.356Z,111
2023-04-28T14:59:10.649Z,111
2023-04-28T15:00:11.049Z,111
2023-04-28T15:01:10.246Z,111
2023-04-28T15:02:11.032Z,111
2023-04-28T15:03:11.626Z,111
2023-04-28T15:04:10.862Z,111
2023-04-28T15:05:11.558Z,111
2023-04-28T15:06:10.975Z,111
2023-04-28T15:07:11.037Z,109
2023-04-28T15:08:11.117Z,109
2023-04-28T15:09:10.443Z,109
2023-04-28T15:10:10.793Z,109
2023-04-28T15:14:10.645Z,109
2023-04-28T15:15:10.809Z,109
2023-04-28T15:16:11.173Z,109
2023-04-28T15:17:10.898Z,109
2023-04-28T15:18:10.890Z,109
2023-04-28T15:19:10.708Z,109
2023-04-28T15:20:11.081Z,109
2023-04-28T15:21:10.500Z,109
2023-04-28T15:22:10.689Z,109
2023-04-28T15:23:10.835Z,109
2023-04-28T15:24:11.222Z,109
2023-04-28T15:28:10.597Z,109
2023-04-28T15:29:11.048Z,109
2023-04-28T15:30:11.067Z,109
2023-04-28T15:31:11.385Z,109
2023-04-28T15:32:10.823Z,109
2023-04-28T15:33:11.618Z,109
2023-04-28T15:34:10.391Z,109
2023-04-28T15:35:10.842Z,109
2023-04-28T15:36:11.104Z,109
2023-04-28T15:37:10.362Z,109
2023-04-28T15:38:10.884Z,109
2023-04-28T15:39:11.135Z,109
2023-04-28T15:40:10.307Z,109
2023-04-28T15:41:10.887Z,109
2023-04-28T15:45:10.159Z,109
2023-04-28T15:46:10.990Z,109
2023-04-28T15:47:10.983Z,109
2023-04-28T15:48:11.344Z,109
2023-04-28T15:49:10.609Z,109
2023-04-28T15:50:10.851Z,109
2023-04-28T15:51:11.032Z,109
2023-04-28T15:52:11.204Z,109
2023-04-28T15:53:10.256Z,109
2023-04-28T15:54:10.405Z,109
2023-04-28T15:55:10.860Z,109
2023-04-28T15:56:10.978Z,109
2023-04-28T15:57:10.251Z,109
2023-04-28T15:58:10.526Z,109
2023-04-28T15:59:10.720Z,109
2023-04-28T16:00:11.126Z,109
2023-04-28T16:01:11.234Z,109
2023-04-28T16:02:10.550Z,109
2023-04-28T16:03:11.596Z,109
2023-04-28T16:04:11.714Z,109
2023-04-28T16:09:10.504Z,111
2023-04-28T16:10:13.038Z,111
2023-04-28T16:11:11.209Z,111
2023-04-28T16:12:10.587Z,111
2023-04-28T16:13:11.047Z,111
2023-04-28T16:14:11.297Z,111
2023-04-28T16:16:14.270Z,111
2023-04-28T16:19:10.749Z,111
2023-04-28T16:20:11.275Z,111
2023-04-28T16:21:10.418Z,111
2023-04-28T16:22:10.551Z,111
2023-04-28T16:23:12.085Z,111
2023-04-28T16:24:11.035Z,111
2023-04-28T16:25:11.639Z,111
2023-04-28T16:26:10.360Z,111
2023-04-28T16:27:10.092Z,111
2023-04-28T16:28:10.319Z,111
2023-04-28T16:29:12.175Z,111
2023-04-28T16:30:10.130Z,111
2023-04-28T16:31:10.465Z,111
2023-04-28T16:32:10.816Z,111
2023-04-28T16:33:10.337Z,111
2023-04-28T16:37:11.153Z,111
2023-04-28T16:38:11.155Z,111
2023-04-28T16:39:10.428Z,111
2023-04-28T16:40:10.947Z,111
2023-04-28T16:41:11.065Z,111
2023-04-28T16:42:11.295Z,111
2023-04-28T16:43:10.469Z,111
2023-04-28T16:44:10.683Z,111
2023-04-28T16:45:11.233Z,111
2023-04-28T16:46:10.951Z,111
2023-04-28T16:47:11.080Z,111
2023-04-28T16:48:11.609Z,111
2023-04-28T16:52:11.235Z,111
2023-04-28T16:54:10.550Z,111
2023-04-28T16:55:10.956Z,111